Time;durP1;ratioP1;P1;durP2;ratioP2;P2;SDS_P1;SDS_P2;PMS_P1;PMS_P2;Temp;Humidity;BMP_temperature;BMP_pressure;BME280_temperature;BME280_humidity;BME280_pressure;Samples;Min_cycle;Max_cycle;Signal;HPM_P1;HPM_P2
2022/08/13 00:02:10;;;;;;;3.03;1.40;;;;;;;27.45;44.36;101719.41;5048165;28;20036;-58
2022/08/13 00:04:42;;;;;;;3.17;1.70;;;;;;;27.45;44.21;101716.66;5049111;28;20478;-58
2022/08/13 00:07:08;;;;;;;1.95;1.60;;;;;;;27.41;44.01;101710.78;5048905;28;20036;-58
2022/08/13 00:09:35;;;;;;;2.33;1.38;;;;;;;27.44;44.01;101717.69;5048814;28;20053;-58
2022/08/13 00:14:47;;;;;;;2.03;1.70;;;;;;;27.42;43.93;101714.34;5048764;28;20051;-58
2022/08/13 00:17:13;;;;;;;2.53;1.30;;;;;;;27.41;43.88;101715.41;5048236;28;20070;-59
2022/08/13 00:19:41;;;;;;;2.10;1.63;;;;;;;27.43;43.81;101716.03;5048601;28;20097;-59
2022/08/13 00:22:08;;;;;;;3.35;1.58;;;;;;;27.42;43.78;101714.34;5049033;28;20076;-60
2022/08/13 00:24:34;;;;;;;2.35;1.42;;;;;;;27.41;43.78;101716.22;5048520;28;20034;-59
2022/08/13 00:26:59;;;;;;;4.35;1.77;;;;;;;27.41;43.61;101721.69;5048431;28;20079;-59
2022/08/13 00:29:26;;;;;;;3.55;2.22;;;;;;;27.40;43.52;101713.72;5048299;28;20098;-59
2022/08/13 00:31:51;;;;;;;1.83;1.40;;;;;;;27.41;43.35;101720.84;5048143;28;20048;-59
2022/08/13 00:34:18;;;;;;;2.05;1.40;;;;;;;27.39;43.43;101721.03;5048521;28;20463;-59
2022/08/13 00:36:43;;;;;;;2.10;1.60;;;;;;;27.40;43.37;101727.38;5030540;28;20721;-59
2022/08/13 00:39:09;;;;;;;1.70;1.40;;;;;;;27.39;43.29;101723.78;5048092;28;20029;-59
2022/08/13 00:41:39;;;;;;;2.10;1.58;;;;;;;27.38;43.54;101724.84;5048514;28;20040;-60
2022/08/13 00:44:07;;;;;;;1.70;1.30;;;;;;;27.39;43.62;101723.78;5048372;28;20022;-60
2022/08/13 00:46:33;;;;;;;1.88;1.45;;;;;;;27.39;43.39;101715.59;5037134;28;20034;-59
2022/08/13 00:49:01;;;;;;;1.52;1.27;;;;;;;27.38;43.33;101719.38;5028131;28;20032;-59
2022/08/13 00:51:27;;;;;;;2.50;1.20;;;;;;;27.39;42.84;101726.50;5027690;28;20068;-58
2022/08/13 00:53:54;;;;;;;1.70;1.42;;;;;;;27.40;42.56;101728.22;5026961;28;20089;-59
2022/08/13 00:56:22;;;;;;;2.63;1.50;;;;;;;27.40;41.89;101721.91;5027279;28;20045;-59
2022/08/13 00:58:48;;;;;;;1.83;1.25;;;;;;;27.39;42.09;101720.22;5026721;28;20033;-58
2022/08/13 01:01:13;;;;;;;2.47;1.30;;;;;;;27.39;42.07;101712.00;5026552;28;20026;-59
2022/08/13 01:03:38;;;;;;;1.48;1.33;;;;;;;27.37;42.17;101722.31;5032995;28;20018;-59
2022/08/13 01:06:05;;;;;;;2.20;1.10;;;;;;;27.38;42.41;101719.38;5043172;28;20022;-59
2022/08/13 01:08:34;;;;;;;1.73;1.38;;;;;;;27.39;42.26;101717.47;5026620;28;20076;-60
2022/08/13 01:11:03;;;;;;;1.83;1.45;;;;;;;27.39;41.41;101717.47;5035763;28;20021;-59
2022/08/13 01:13:33;;;;;;;1.58;1.23;;;;;;;27.38;41.62;101722.09;5028618;28;20402;-59
2022/08/13 01:15:59;;;;;;;1.70;1.23;;;;;;;27.37;41.31;101714.97;5046044;28;20030;-59
2022/08/13 01:18:25;;;;;;;1.58;1.23;;;;;;;27.36;40.86;101718.75;5046193;28;20112;-59
2022/08/13 01:21:00;;;;;;;1.98;1.42;;;;;;;27.31;40.31;101706.75;5009032;28;20049;-59
2022/08/13 01:23:28;;;;;;;1.92;1.40;;;;;;;27.36;40.16;101716.03;5026414;28;20033;-60
2022/08/13 01:25:54;;;;;;;2.15;1.15;;;;;;;27.36;40.42;101717.91;5026600;28;20434;-59
2022/08/13 01:28:22;;;;;;;2.20;1.70;;;;;;;27.36;40.06;101718.75;5026528;28;20109;-59
2022/08/13 01:30:50;;;;;;;1.30;1.10;;;;;;;27.35;39.69;101722.50;5026191;28;20030;-59
2022/08/13 01:33:17;;;;;;;3.55;1.63;;;;;;;27.32;39.37;101717.47;5026374;28;20113;-59
2022/08/13 01:35:43;;;;;;;2.33;1.65;;;;;;;27.34;39.18;101720.81;5028130;28;20046;-59
2022/08/13 01:38:08;;;;;;;2.65;1.60;;;;;;;27.33;38.89;101721.88;5046203;28;20039;-60
2022/08/13 01:40:34;;;;;;;1.92;1.50;;;;;;;27.32;38.80;101717.47;5046166;28;20081;-59
2022/08/13 01:43:00;;;;;;;2.70;1.60;;;;;;;27.33;38.54;101716.41;5046025;28;20092;-59
2022/08/13 01:45:26;;;;;;;2.25;1.75;;;;;;;27.32;38.61;101717.47;5046154;28;20034;-59
2022/08/13 01:50:36;;;;;;;1.70;1.23;;;;;;;27.28;38.16;101715.34;5010507;28;1014639;-59
2022/08/13 01:53:08;;;;;;;1.95;1.30;;;;;;;27.31;38.15;101717.66;5029408;28;20036;-59
2022/08/13 01:55:39;;;;;;;1.60;1.40;;;;;;;27.30;38.27;101725.00;5046983;28;20068;-59
2022/08/13 01:58:06;;;;;;;2.63;1.88;;;;;;;27.29;38.11;101726.06;5046810;28;20088;-58
2022/08/13 02:00:32;;;;;;;1.92;1.25;;;;;;;27.29;38.25;101727.97;5028757;28;20441;-59
2022/08/13 02:03:01;;;;;;;3.05;1.65;;;;;;;27.28;38.45;101727.13;5046412;28;20022;-59
2022/08/13 02:05:26;;;;;;;2.28;1.55;;;;;;;27.29;38.04;101730.69;5046798;28;20114;-59
2022/08/13 02:07:52;;;;;;;2.25;1.50;;;;;;;27.27;38.30;101724.56;5046881;28;20455;-59
2022/08/13 02:10:21;;;;;;;2.63;1.30;;;;;;;27.27;38.30;101721.84;5023259;28;20030;-59
2022/08/13 02:12:48;;;;;;;2.17;1.30;;;;;;;27.26;37.85;101721.00;5008997;28;20028;-59
2022/08/13 02:15:15;;;;;;;2.60;1.33;;;;;;;27.27;37.99;101716.38;5026734;28;20425;-59
2022/08/13 02:17:41;;;;;;;1.63;1.23;;;;;;;27.25;37.92;101716.59;5026339;28;20123;-59
2022/08/13 02:20:07;;;;;;;1.70;1.17;;;;;;;27.25;37.81;101704.84;5025771;28;20029;-59
2022/08/13 02:22:33;;;;;;;1.95;1.50;;;;;;;27.24;37.86;101716.81;5026978;28;20080;-59
2022/08/13 02:24:59;;;;;;;1.50;1.25;;;;;;;27.24;38.00;101717.66;5026561;28;20037;-59
2022/08/13 02:27:25;;;;;;;1.30;1.00;;;;;;;27.24;37.99;101716.81;5026441;28;20395;-58
2022/08/13 02:29:53;;;;;;;1.52;1.17;;;;;;;27.23;37.59;101717.84;5026375;28;20032;-58
2022/08/13 02:32:19;;;;;;;1.65;1.30;;;;;;;27.22;37.79;101722.47;5008358;28;20399;-59
2022/08/13 02:34:49;;;;;;;2.60;1.60;;;;;;;27.21;37.77;101718.06;5026611;28;20036;-59
2022/08/13 02:37:15;;;;;;;3.63;1.40;;;;;;;27.22;37.83;101719.72;5026249;28;20025;-59
2022/08/13 02:39:42;;;;;;;3.92;1.42;;;;;;;27.20;37.76;101721.00;5026151;28;20101;-60
2022/08/13 02:42:08;;;;;;;1.90;1.35;;;;;;;27.19;37.50;101709.25;5026208;28;20025;-59
2022/08/13 02:44:33;;;;;;;2.13;1.50;;;;;;;27.11;37.82;101696.59;5026297;28;20052;-59
2022/08/13 02:46:58;;;;;;;1.60;1.40;;;;;;;27.19;37.62;101711.09;5025798;28;20041;-59
2022/08/13 02:49:24;;;;;;;1.88;1.60;;;;;;;27.17;37.22;101714.88;5026081;28;20036;-59
2022/08/13 02:51:49;;;;;;;2.45;1.40;;;;;;;27.17;37.67;101714.06;5008421;28;20095;-59
2022/08/13 02:54:18;;;;;;;2.08;1.60;;;;;;;27.17;37.49;101717.63;5026007;28;20126;-59
2022/08/13 02:56:44;;;;;;;1.55;1.23;;;;;;;27.16;37.63;101721.41;5026296;28;20161;-59
2022/08/13 02:59:10;;;;;;;2.00;1.42;;;;;;;27.15;37.52;101716.16;5025653;28;20034;-59
2022/08/13 03:01:38;;;;;;;2.85;1.35;;;;;;;27.14;37.34;101718.06;5025412;28;20051;-59
2022/08/13 03:04:05;;;;;;;1.83;1.48;;;;;;;27.13;37.59;101718.22;5025999;28;20029;-59
2022/08/13 03:06:30;;;;;;;1.77;1.20;;;;;;;27.13;37.37;101719.06;5026078;28;20033;-59
2022/08/13 03:08:55;;;;;;;1.75;1.52;;;;;;;27.11;37.39;101723.06;5025994;28;20034;-59
2022/08/13 03:11:20;;;;;;;2.55;1.50;;;;;;;27.13;37.53;101718.22;5039801;28;20043;-60
2022/08/13 03:13:53;;;;;;;3.08;1.40;;;;;;;27.13;37.34;101726.41;5045290;28;20017;-58
2022/08/13 03:16:22;;;;;;;3.75;1.30;;;;;;;27.12;37.47;101724.75;5027665;28;20056;-59
2022/08/13 03:18:47;;;;;;;1.90;1.40;;;;;;;27.10;37.53;101722.22;5027637;28;20026;-58
2022/08/13 03:21:18;;;;;;;1.90;1.45;;;;;;;27.10;37.37;101729.56;5045596;28;20033;-58
2022/08/13 03:23:44;;;;;;;1.55;1.25;;;;;;;27.09;37.11;101728.72;5045458;28;20094;-59
2022/08/13 03:26:11;;;;;;;2.45;1.38;;;;;;;27.09;37.11;101731.44;5045681;28;20021;-59
2022/08/13 03:28:37;;;;;;;1.70;1.42;;;;;;;27.09;37.18;101733.31;5045236;28;20382;-58
2022/08/13 03:31:03;;;;;;;2.28;1.30;;;;;;;27.08;37.18;101737.09;5044711;28;20048;-59
2022/08/13 03:33:28;;;;;;;1.80;1.45;;;;;;;27.07;37.11;101728.06;5045219;28;20029;-60
2022/08/13 03:35:53;;;;;;;2.03;1.27;;;;;;;27.02;37.39;101725.09;5045328;28;20113;-60
2022/08/13 03:38:19;;;;;;;1.73;1.38;;;;;;;27.06;37.25;101736.44;5045311;28;20022;-59
2022/08/13 03:41:08;;;;;;;2.08;1.42;;;;;;;27.05;37.14;101737.47;5045067;28;20053;-59
2022/08/13 03:43:33;;;;;;;2.03;1.30;;;;;;;27.01;37.34;101726.13;5030730;28;20033;-59
2022/08/13 03:45:59;;;;;;;1.55;1.20;;;;;;;27.02;37.25;101725.09;5044895;28;20051;-59
2022/08/13 03:48:25;;;;;;;1.33;0.98;;;;;;;26.99;37.04;101725.50;5027352;28;20029;-57
2022/08/13 03:50:51;;;;;;;1.65;1.20;;;;;;;27.03;37.27;101729.50;5044865;28;20131;-60
2022/08/13 03:53:18;;;;;;;1.67;1.27;;;;;;;27.02;37.19;101732.44;5045137;28;20025;-59
2022/08/13 03:55:44;;;;;;;1.38;1.15;;;;;;;27.02;37.17;101730.56;5045496;28;20099;-59
2022/08/13 03:58:11;;;;;;;1.95;1.38;;;;;;;27.03;37.15;101736.84;5045167;28;20451;-59
2022/08/13 04:00:40;;;;;;;1.85;1.50;;;;;;;27.01;37.25;101726.13;5045121;28;20017;-59
2022/08/13 04:03:19;;;;;;;2.15;1.40;;;;;;;27.02;37.09;101735.19;5044429;28;20029;-58
2022/08/13 04:05:45;;;;;;;2.05;1.15;;;;;;;27.01;37.14;101730.75;5044854;28;20478;-57
2022/08/13 04:08:10;;;;;;;2.13;1.20;;;;;;;27.01;37.29;101728.00;5045024;28;20044;-59
2022/08/13 04:10:37;;;;;;;3.40;1.83;;;;;;;27.00;37.28;101724.44;5019443;28;20022;-59
2022/08/13 04:13:04;;;;;;;1.58;1.20;;;;;;;26.99;37.08;101720.03;5025106;28;20033;-59
2022/08/13 04:15:30;;;;;;;1.70;1.35;;;;;;;26.99;37.00;101717.31;5025619;28;20022;-59
2022/08/13 04:17:55;;;;;;;2.50;1.60;;;;;;;26.98;37.00;101717.53;5024593;28;20022;-59
2022/08/13 04:20:21;;;;;;;2.75;1.33;;;;;;;26.96;37.17;101711.41;5025073;28;20032;-59
2022/08/13 04:22:47;;;;;;;2.13;1.23;;;;;;;26.97;37.04;101713.09;5025425;28;20475;-59
2022/08/13 04:25:13;;;;;;;1.42;1.20;;;;;;;26.97;37.18;101715.81;5025194;28;20037;-61
2022/08/13 04:27:38;;;;;;;2.88;1.77;;;;;;;26.97;37.00;101708.47;5025102;28;20049;-58
2022/08/13 04:30:05;;;;;;;1.80;1.17;;;;;;;26.95;36.94;101715.19;5024821;28;20041;-59
2022/08/13 04:32:42;;;;;;;2.03;1.23;;;;;;;26.96;36.99;101714.13;5024645;28;20025;-59
2022/08/13 04:35:09;;;;;;;1.67;1.30;;;;;;;26.95;37.08;101710.56;5025111;28;20030;-59
2022/08/13 04:37:34;;;;;;;2.40;1.20;;;;;;;26.95;37.10;101712.47;5024790;28;20105;-59
2022/08/13 04:39:59;;;;;;;1.38;1.10;;;;;;;26.93;37.01;101723.56;5024749;28;20030;-59
2022/08/13 04:42:24;;;;;;;1.60;1.23;;;;;;;26.92;37.04;101728.19;5025222;28;20026;-58
2022/08/13 04:44:50;;;;;;;1.83;1.10;;;;;;;26.88;36.74;101726.91;5028618;28;20026;-59
2022/08/13 04:47:15;;;;;;;2.47;1.60;;;;;;;26.92;36.91;101720.00;5028028;28;20037;-60
2022/08/13 04:49:40;;;;;;;1.50;1.30;;;;;;;26.90;37.19;101724.84;5028301;28;20025;-59
2022/08/13 04:52:06;;;;;;;1.70;1.25;;;;;;;26.91;36.98;101723.78;5028239;28;20046;-60
2022/08/13 04:54:31;;;;;;;2.15;1.30;;;;;;;26.90;37.10;101727.56;5028239;28;20030;-60
2022/08/13 04:56:56;;;;;;;1.40;1.20;;;;;;;26.90;37.03;101730.28;5028339;28;20026;-61
2022/08/13 04:59:22;;;;;;;2.55;1.38;;;;;;;26.90;36.91;101732.19;5027857;28;20081;-59
2022/08/13 05:01:47;;;;;;;1.50;1.20;;;;;;;26.90;36.83;101732.19;5027688;28;20028;-59
2022/08/13 05:04:13;;;;;;;1.67;1.10;;;;;;;26.88;36.88;101731.53;5028008;28;20037;-59
2022/08/13 05:06:38;;;;;;;2.33;1.40;;;;;;;26.87;36.87;101724.38;5026094;28;20037;-59
2022/08/13 05:09:03;;;;;;;1.90;1.23;;;;;;;26.87;37.03;101732.56;5027960;28;20036;-59
2022/08/13 05:11:29;;;;;;;2.35;1.60;;;;;;;26.86;37.11;101737.19;5042832;28;20030;-60
2022/08/13 05:13:54;;;;;;;2.60;1.40;;;;;;;26.82;36.84;101730.44;5047579;28;20125;-60
2022/08/13 05:16:20;;;;;;;2.17;1.65;;;;;;;26.86;37.03;101730.91;5047124;28;20025;-59
2022/08/13 05:18:54;;;;;;;2.30;1.15;;;;;;;26.85;37.10;101738.25;5047585;28;20056;-59
2022/08/13 05:21:22;;;;;;;2.55;1.67;;;;;;;26.84;37.21;101732.97;5047659;28;20026;-60
2022/08/13 05:23:53;;;;;;;3.08;1.95;;;;;;;26.83;37.07;101734.84;5047615;28;20021;-59
2022/08/13 05:26:22;;;;;;;1.90;1.20;;;;;;;26.83;36.92;101734.84;5047759;28;20026;-59
2022/08/13 05:28:49;;;;;;;1.83;1.35;;;;;;;26.81;37.29;101727.94;5047239;28;20022;-58
2022/08/13 05:31:17;;;;;;;1.52;1.20;;;;;;;26.84;36.97;101736.53;5046949;28;20030;-58
2022/08/13 05:33:42;;;;;;;2.08;1.38;;;;;;;26.84;37.32;101735.69;5047455;28;20085;-59
2022/08/13 05:36:09;;;;;;;1.70;1.02;;;;;;;26.83;37.05;101728.56;5047170;28;20033;-58
2022/08/13 05:38:35;;;;;;;1.77;1.33;;;;;;;26.82;37.28;101730.44;5047218;28;20048;-59
2022/08/13 05:41:04;;;;;;;3.25;1.38;;;;;;;26.82;37.13;101733.19;5047073;28;20029;-60
2022/08/13 05:43:29;;;;;;;;;;;;;;;26.80;37.13;101729.78;5047268;28;20360;-59
2022/08/13 05:45:57;;;;;;;2.47;1.55;;;;;;;26.81;37.08;101741.56;5047112;28;19915;-59
2022/08/13 05:48:28;;;;;;;1.70;1.40;;;;;;;26.80;37.37;101737.97;5046319;28;20072;-59
2022/08/13 05:50:55;;;;;;;1.35;1.23;;;;;;;26.80;37.06;101737.16;5046776;28;20132;-59
2022/08/13 05:53:21;;;;;;;2.17;1.30;;;;;;;26.80;37.38;101731.69;5046668;28;20056;-59
2022/08/13 05:55:47;;;;;;;2.53;1.52;;;;;;;26.77;37.25;101732.94;5028328;28;20049;-59
2022/08/13 05:58:13;;;;;;;1.80;1.30;;;;;;;26.79;37.02;101733.56;5046705;28;20013;-58
2022/08/13 06:03:27;;;;;;;1.52;1.35;;;;;;;26.78;36.99;101736.50;5046572;28;20036;-59
2022/08/13 06:05:54;;;;;;;2.05;1.30;;;;;;;26.75;37.37;101731.44;5046806;28;20021;-60
2022/08/13 06:08:23;;;;;;;1.95;1.33;;;;;;;26.80;37.28;101737.16;5046780;28;20049;-59
2022/08/13 06:10:48;;;;;;;2.38;1.05;;;;;;;26.80;37.34;101737.16;5036858;28;20049;-59
2022/08/13 06:13:15;;;;;;;1.42;1.33;;;;;;;26.76;37.13;101727.66;5026535;28;20037;-59
2022/08/13 06:15:42;;;;;;;1.92;1.30;;;;;;;26.79;37.40;101736.31;5009268;28;20036;-60
2022/08/13 06:18:10;;;;;;;2.33;1.48;;;;;;;26.80;37.31;101731.69;5026078;28;20022;-59
2022/08/13 06:20:36;;;;;;;1.37;1.20;;;;;;;26.79;37.09;101735.47;5026574;28;20026;-60
2022/08/13 06:23:02;;;;;;;1.92;1.20;;;;;;;26.80;37.24;101734.41;5026669;28;20326;-60
2022/08/13 06:25:27;;;;;;;2.15;1.30;;;;;;;26.80;37.31;101737.16;5008983;28;20037;-59
2022/08/13 06:27:54;;;;;;;1.35;1.02;;;;;;;26.79;37.17;101736.31;5026571;28;20022;-59
2022/08/13 06:30:19;;;;;;;2.63;1.30;;;;;;;26.80;37.28;101734.41;5026146;28;20475;-59
2022/08/13 06:32:44;;;;;;;2.58;1.30;;;;;;;26.79;37.12;101735.47;5026096;28;20033;-59
2022/08/13 06:35:10;;;;;;;1.38;1.05;;;;;;;26.80;37.45;101734.41;5026535;28;20026;-59
2022/08/13 06:37:41;;;;;;;1.67;1.08;;;;;;;26.72;37.21;101721.81;5026224;28;20032;-59
2022/08/13 06:40:09;;;;;;;1.80;0.95;;;;;;;26.78;37.09;101731.06;5008526;28;20032;-59
2022/08/13 06:42:34;;;;;;;;;;;;;;;26.78;37.32;101734.63;5009076;28;20029;-60
2022/08/13 06:45:00;;;;;;;2.78;0.90;;;;;;;26.78;37.26;101734.63;5008475;28;19932;-60
2022/08/13 06:47:29;;;;;;;1.75;1.33;;;;;;;26.78;37.12;101731.06;5008097;28;20029;-59
2022/08/13 06:49:54;;;;;;;2.15;1.52;;;;;;;26.77;37.30;101732.94;5026008;28;20022;-58
2022/08/13 06:52:20;;;;;;;1.92;1.52;;;;;;;26.77;37.23;101727.50;5026000;28;20048;-60
2022/08/13 06:54:45;;;;;;;1.83;1.08;;;;;;;26.75;37.03;101729.56;5025783;28;20049;-57
2022/08/13 06:57:11;;;;;;;2.08;1.35;;;;;;;26.78;37.12;101734.63;5026097;28;20026;-59
2022/08/13 06:59:39;;;;;;;2.40;0.93;;;;;;;26.69;37.15;101718.63;5007720;28;20034;-56
2022/08/13 07:02:05;;;;;;;1.67;1.00;;;;;;;26.78;37.21;101734.63;5008063;28;20507;-58
2022/08/13 07:04:30;;;;;;;1.60;1.33;;;;;;;26.77;37.13;101735.69;5026014;28;20037;-59
2022/08/13 07:06:57;;;;;;;1.55;1.13;;;;;;;26.78;37.11;101731.06;5025457;28;20041;-58
2022/08/13 07:09:22;;;;;;;1.48;1.13;;;;;;;26.78;37.00;101741.97;5025708;28;20014;-58
2022/08/13 07:11:48;;;;;;;1.55;1.30;;;;;;;26.76;37.27;101731.28;5025566;28;20036;-59
2022/08/13 07:14:14;;;;;;;2.22;1.05;;;;;;;26.78;37.30;101736.50;5045469;28;20029;-60
2022/08/13 07:16:42;;;;;;;1.73;1.10;;;;;;;26.78;37.15;101731.06;5027152;28;20017;-59
2022/08/13 07:19:07;;;;;;;1.98;1.20;;;;;;;26.69;36.89;101721.34;5045239;28;20025;-59
2022/08/13 07:21:33;;;;;;;1.45;1.13;;;;;;;26.71;36.91;101728.28;5045396;28;20044;-59
2022/08/13 07:24:04;;;;;;;2.05;1.15;;;;;;;26.75;37.04;101729.56;5045335;28;20021;-59
2022/08/13 07:26:31;;;;;;;1.40;1.10;;;;;;;26.76;36.96;101731.28;5045462;28;20021;-58
2022/08/13 07:28:56;;;;;;;1.65;1.23;;;;;;;26.77;37.13;101737.56;5045104;28;20026;-59
2022/08/13 07:31:27;;;;;;;1.38;1.10;;;;;;;26.77;36.79;101735.69;5044791;28;20036;-58
2022/08/13 07:33:54;;;;;;;1.52;1.20;;;;;;;26.76;37.12;101736.72;5045213;28;20459;-59
2022/08/13 07:36:21;;;;;;;2.25;1.42;;;;;;;26.76;37.25;101731.28;5045126;28;20031;-60
2022/08/13 07:38:47;;;;;;;1.30;1.00;;;;;;;26.76;36.81;101736.72;5044999;28;20021;-58
2022/08/13 07:41:13;;;;;;;1.30;0.95;;;;;;;26.76;37.10;101734.00;5027226;28;20082;-60
2022/08/13 07:43:43;;;;;;;1.42;1.17;;;;;;;26.77;36.66;101737.56;5044810;28;20030;-59
2022/08/13 07:46:11;;;;;;;1.52;1.15;;;;;;;26.76;37.04;101736.72;5044877;28;20464;-60
2022/08/13 07:48:39;;;;;;;1.60;1.15;;;;;;;26.76;37.09;101736.72;5045051;28;20049;-60
2022/08/13 07:51:07;;;;;;;1.90;1.17;;;;;;;26.76;37.08;101738.59;5044783;28;20057;-59
2022/08/13 07:53:35;;;;;;;1.63;1.00;;;;;;;26.77;37.03;101737.56;5044952;28;20055;-60
2022/08/13 07:56:04;;;;;;;1.40;1.05;;;;;;;26.76;37.04;101744.91;5045032;28;20021;-60
2022/08/13 07:58:30;;;;;;;2.72;1.20;;;;;;;26.76;37.45;101744.03;5044935;28;20083;-59
2022/08/13 08:00:57;;;;;;;2.08;1.20;;;;;;;26.76;37.06;101744.03;5027323;28;20120;-59
2022/08/13 08:03:24;;;;;;;1.63;1.13;;;;;;;26.77;37.19;101740.28;5044656;28;20045;-59
2022/08/13 08:05:51;;;;;;;1.27;0.80;;;;;;;26.76;37.35;101736.72;5044893;28;20459;-59
2022/08/13 08:08:16;;;;;;;1.63;1.10;;;;;;;26.73;37.45;101731.66;5027312;28;20090;-59
2022/08/13 08:10:42;;;;;;;0.88;0.70;;;;;;;26.77;37.87;101741.13;5018336;28;20033;-59
2022/08/13 08:13:09;;;;;;;1.15;0.82;;;;;;;26.78;37.64;101739.25;5025045;28;20022;-58
2022/08/13 08:15:35;;;;;;;1.35;1.00;;;;;;;26.75;38.03;101731.44;5024948;28;20029;-58
2022/08/13 08:18:01;;;;;;;1.55;1.10;;;;;;;26.75;37.57;101734.19;5026141;28;20022;-59
2022/08/13 08:20:27;;;;;;;1.55;1.00;;;;;;;26.77;37.59;101738.41;5028706;28;20079;-59
2022/08/13 08:22:53;;;;;;;1.80;1.40;;;;;;;26.76;37.86;101728.53;5028928;28;20499;-60
2022/08/13 08:25:21;;;;;;;2.42;1.02;;;;;;;26.77;38.94;101734.84;5028550;28;20022;-59
2022/08/13 08:27:47;;;;;;;2.17;1.33;;;;;;;26.70;38.92;101725.75;5028728;28;20033;-60
2022/08/13 08:30:17;;;;;;;0.93;0.82;;;;;;;26.77;38.83;101735.69;5028394;28;20026;-59
2022/08/13 08:32:43;;;;;;;1.27;1.10;;;;;;;26.76;39.64;101725.81;5028340;28;20022;-59
2022/08/13 08:35:08;;;;;;;1.83;1.13;;;;;;;26.78;39.64;101733.78;5028620;28;20029;-58
2022/08/13 08:43:04;;;;;;;1.30;1.17;;;;;;;26.78;38.69;101740.09;5013557;28;20037;-60
2022/08/13 08:45:31;;;;;;;1.73;0.85;;;;;;;26.81;38.86;101745.16;5028523;28;20030;-59
2022/08/13 08:47:56;;;;;;;2.45;0.82;;;;;;;26.84;38.63;101743.88;5027774;28;20030;-59
2022/08/13 08:50:24;;;;;;;1.88;0.93;;;;;;;26.85;38.49;101745.59;5028249;28;20030;-60
2022/08/13 08:55:36;;;;;;;1.15;0.90;;;;;;;26.87;38.60;101741.59;5030034;28;20041;-60
2022/08/13 08:58:07;;;;;;;2.75;1.02;;;;;;;26.88;38.43;101737.81;5036781;28;20046;-60
2022/08/13 09:00:35;;;;;;;1.35;0.82;;;;;;;26.87;38.46;101740.75;5042365;28;20080;-59
2022/08/13 09:03:02;;;;;;;1.35;0.75;;;;;;;26.90;38.56;101746.66;5030373;28;20022;-61
2022/08/13 09:05:27;;;;;;;1.38;0.75;;;;;;;26.91;39.10;101745.59;5028542;28;20036;-59
2022/08/13 09:07:53;;;;;;;1.15;0.88;;;;;;;26.92;39.87;101743.72;5028301;28;20042;-59
2022/08/13 09:10:20;;;;;;;1.10;0.90;;;;;;;26.92;39.65;101732.81;5027982;28;20123;-60
2022/08/13 09:12:47;;;;;;;2.58;1.00;;;;;;;26.94;39.39;101735.34;5019594;28;20021;-60
2022/08/13 09:15:17;;;;;;;1.42;0.90;;;;;;;26.93;39.98;101739.94;5047669;28;20032;-60
2022/08/13 09:17:45;;;;;;;1.60;1.00;;;;;;;26.94;39.93;101732.63;5047279;28;20021;-62
2022/08/13 09:20:14;;;;;;;2.70;1.17;;;;;;;26.94;39.60;101730.72;5030117;28;20030;-60
2022/08/13 09:22:41;;;;;;;1.20;0.88;;;;;;;26.95;39.99;101726.94;5047704;28;20085;-59
2022/08/13 09:25:08;;;;;;;1.98;0.95;;;;;;;26.85;40.02;101716.41;5047471;28;20040;-59
2022/08/13 09:27:35;;;;;;;1.05;0.85;;;;;;;26.92;40.14;101717.28;5047807;28;20045;-59
2022/08/13 09:30:01;;;;;;;1.13;0.80;;;;;;;26.96;40.61;101725.06;5035686;28;20026;-59
2022/08/13 09:32:28;;;;;;;1.30;0.90;;;;;;;26.96;40.73;101716.88;5027003;28;20537;-60
2022/08/13 09:34:54;;;;;;;1.35;0.88;;;;;;;26.97;40.82;101721.28;5027891;28;20033;-60
2022/08/13 09:37:19;;;;;;;1.13;0.93;;;;;;;26.96;40.98;101719.59;5027609;28;20463;-59
2022/08/13 09:39:55;;;;;;;1.45;0.80;;;;;;;26.96;40.78;101717.72;5009715;28;20049;-60
2022/08/13 09:42:24;;;;;;;1.58;0.93;;;;;;;26.97;41.33;101719.38;5009873;28;20018;-60
2022/08/13 09:45:00;;;;;;;1.15;0.80;;;;;;;26.96;41.33;101709.53;5027189;28;20022;-60
2022/08/13 09:47:26;;;;;;;0.95;0.85;;;;;;;26.98;41.44;101714.78;5009562;28;20064;-60
2022/08/13 09:49:51;;;;;;;1.52;1.02;;;;;;;26.95;41.17;101710.56;5009295;28;20060;-60
2022/08/13 09:52:17;;;;;;;2.17;1.25;;;;;;;26.97;41.59;101707.63;5027350;28;20109;-59
2022/08/13 09:54:43;;;;;;;1.83;0.77;;;;;;;26.98;41.31;101712.06;5027230;28;20036;-60
2022/08/13 09:57:09;;;;;;;1.23;0.90;;;;;;;26.97;41.79;101715.81;5027499;28;20092;-59
2022/08/13 09:59:35;;;;;;;1.20;0.70;;;;;;;26.97;41.54;101719.38;5027042;28;20061;-59
2022/08/13 10:02:05;;;;;;;1.13;0.80;;;;;;;26.95;41.27;101710.56;5026578;28;20034;-59
2022/08/13 10:04:32;;;;;;;1.45;0.85;;;;;;;26.98;41.45;101709.34;5041155;28;20471;-59
2022/08/13 10:06:58;;;;;;;1.20;0.90;;;;;;;26.97;41.46;101713.09;5029180;28;20032;-60
2022/08/13 10:09:26;;;;;;;1.25;0.90;;;;;;;26.95;41.16;101707.00;5046621;28;20022;-60
2022/08/13 10:11:53;;;;;;;1.17;1.00;;;;;;;26.98;41.29;101714.78;5046460;28;20029;-59
2022/08/13 10:14:18;;;;;;;0.95;0.70;;;;;;;26.99;41.42;101700.09;5046612;28;20037;-59
2022/08/13 10:16:43;;;;;;;1.33;0.98;;;;;;;26.98;41.46;101695.69;5045967;28;20025;-59
2022/08/13 10:19:09;;;;;;;1.35;1.05;;;;;;;26.98;41.54;101690.22;5046398;28;20037;-60
2022/08/13 10:21:34;;;;;;;0.90;0.75;;;;;;;26.99;41.43;101694.63;5046614;28;20042;-60
2022/08/13 10:23:59;;;;;;;1.00;0.80;;;;;;;26.99;41.50;101686.44;5046577;28;20105;-60
2022/08/13 10:26:25;;;;;;;1.25;0.90;;;;;;;26.99;41.39;101681.00;5046539;28;20051;-60
2022/08/13 10:28:50;;;;;;;0.90;0.75;;;;;;;26.99;40.96;101683.72;5046506;28;20021;-60
2022/08/13 10:31:16;;;;;;;1.80;1.00;;;;;;;26.99;41.32;101684.56;5045881;28;20390;-58
2022/08/13 10:33:41;;;;;;;1.50;0.93;;;;;;;26.98;41.15;101680.16;5045991;28;20026;-60
2022/08/13 10:36:07;;;;;;;0.77;0.77;;;;;;;27.00;41.08;101680.78;5046136;28;20060;-60
2022/08/13 10:38:33;;;;;;;0.77;0.65;;;;;;;26.96;41.15;101673.19;5046466;28;20116;-60
2022/08/13 10:41:07;;;;;;;1.38;0.95;;;;;;;27.01;41.19;101673.44;5045313;28;20029;-60
2022/08/13 10:43:38;;;;;;;0.90;0.77;;;;;;;27.02;41.25;101665.06;5028998;28;20533;-60
2022/08/13 10:46:04;;;;;;;0.88;0.75;;;;;;;27.01;41.02;101665.25;5046108;28;20429;-60
2022/08/13 10:48:30;;;;;;;1.02;0.70;;;;;;;27.03;40.96;101657.72;5045896;28;20024;-60
2022/08/13 10:50:55;;;;;;;1.23;0.65;;;;;;;27.03;40.85;101665.91;5045507;28;20128;-60
2022/08/13 10:56:06;;;;;;;1.35;0.80;;;;;;;27.02;40.94;101664.22;5045666;28;20025;-60
2022/08/13 10:58:31;;;;;;;0.90;0.80;;;;;;;27.01;40.88;101655.16;5045700;28;20029;-60
2022/08/13 11:01:01;;;;;;;0.93;0.80;;;;;;;27.05;40.96;101658.31;5045374;28;20085;-60
2022/08/13 11:03:26;;;;;;;1.00;0.77;;;;;;;27.06;41.05;101657.28;5040085;28;20041;-60
2022/08/13 11:05:51;;;;;;;1.27;0.77;;;;;;;27.06;41.07;101657.28;5025846;28;20031;-60
2022/08/13 11:08:16;;;;;;;1.27;0.88;;;;;;;27.07;41.17;101661.72;5026061;28;20029;-60
2022/08/13 11:10:42;;;;;;;1.27;0.77;;;;;;;27.07;41.17;101661.72;5025688;28;20037;-60
2022/08/13 11:13:07;;;;;;;1.08;0.88;;;;;;;27.08;40.97;101660.66;5025945;28;20032;-60
2022/08/13 11:15:33;;;;;;;1.92;0.90;;;;;;;27.04;40.73;101660.22;5025951;28;20022;-60
2022/08/13 11:17:59;;;;;;;1.25;0.88;;;;;;;27.07;41.25;101656.25;5025375;28;20464;-60
2022/08/13 11:20:27;;;;;;;1.48;0.90;;;;;;;27.09;41.20;101649.56;5025547;28;20037;-59
2022/08/13 11:22:54;;;;;;;0.98;0.80;;;;;;;27.11;41.11;101650.19;5008166;28;20021;-59
2022/08/13 11:25:20;;;;;;;0.80;0.63;;;;;;;27.11;41.22;101647.47;5025847;28;20430;-59
2022/08/13 11:27:45;;;;;;;1.45;1.02;;;;;;;27.11;41.25;101644.75;5025627;28;20041;-59
2022/08/13 11:30:12;;;;;;;1.30;0.77;;;;;;;27.13;41.13;101647.25;5025435;28;20038;-59
2022/08/13 11:32:37;;;;;;;0.98;0.70;;;;;;;27.10;41.09;101644.94;5007674;28;20036;-59
2022/08/13 11:35:04;;;;;;;0.55;0.50;;;;;;;27.13;41.06;101645.38;5025796;28;20030;-59
2022/08/13 11:37:30;;;;;;;0.88;0.70;;;;;;;27.14;41.03;101647.06;5025295;28;20022;-59
2022/08/13 11:39:55;;;;;;;0.95;0.65;;;;;;;27.14;41.02;101644.34;5025403;28;20058;-59
2022/08/13 11:42:20;;;;;;;1.38;0.90;;;;;;;27.14;40.77;101641.63;5025147;28;20086;-59
2022/08/13 11:44:46;;;;;;;1.10;0.80;;;;;;;27.16;40.76;101631.31;5025391;28;20041;-60